createdAt,value
2023-02-01T00:06:00.460Z,14.90
2023-02-01T00:09:04.740Z,5.97
2023-02-01T00:15:10.776Z,2.67
2023-02-01T00:18:13.870Z,2.42
2023-02-01T00:21:19.929Z,2.67
2023-02-01T00:24:23.074Z,2.37
2023-02-01T00:27:26.287Z,6.80
2023-02-01T00:30:29.371Z,3.67
2023-02-01T00:33:33.398Z,7.28
2023-02-01T00:36:37.255Z,6.00
2023-02-01T00:39:40.467Z,5.77
2023-02-01T00:42:44.592Z,21.92
2023-02-01T00:45:48.507Z,6.20
2023-02-01T00:48:52.165Z,9.35
2023-02-01T00:51:55.365Z,6.00
2023-02-01T00:54:58.513Z,4.45
2023-02-01T00:58:01.670Z,2.60
2023-02-01T01:01:12.025Z,11.73
2023-02-01T01:04:15.237Z,3.70
2023-02-01T01:07:18.385Z,8.93
2023-02-01T01:10:22.924Z,8.88
2023-02-01T01:13:26.409Z,6.95
2023-02-01T01:16:32.323Z,2.17
2023-02-01T01:19:35.677Z,4.63
2023-02-01T01:22:38.852Z,8.53
2023-02-01T01:25:42.377Z,7.60
2023-02-01T01:28:46.218Z,4.13
2023-02-01T01:31:49.618Z,4.93
2023-02-01T01:34:52.818Z,6.22
2023-02-01T01:37:55.998Z,1.77
2023-02-01T01:40:59.294Z,2.93
2023-02-01T01:44:05.282Z,4.27
2023-02-01T01:47:08.977Z,6.78
2023-02-01T01:50:18.620Z,4.50
2023-02-01T01:53:26.168Z,3.63
2023-02-01T01:56:31.740Z,8.73
2023-02-01T01:59:38.733Z,3.97
2023-02-01T02:02:44.791Z,5.03
2023-02-01T02:05:50.504Z,6.72
2023-02-01T02:08:53.766Z,10.50
2023-02-01T02:11:59.783Z,13.27
2023-02-01T02:15:03.063Z,17.00
2023-02-01T02:18:37.636Z,12.73
2023-02-01T02:21:56.748Z,10.88
2023-02-01T02:25:27.727Z,13.52
2023-02-01T02:29:03.552Z,17.98
2023-02-01T02:32:09.674Z,14.45
2023-02-01T02:35:28.622Z,17.00
2023-02-01T02:38:48.907Z,10.52
2023-02-01T02:42:36.867Z,14.23
2023-02-01T02:46:15.279Z,15.23
2023-02-01T02:49:23.964Z,13.93
2023-02-01T02:52:45.908Z,21.02
2023-02-01T02:55:51.245Z,24.45
2023-02-01T02:59:15.960Z,13.40
2023-02-01T03:02:38.367Z,18.73
2023-02-01T03:05:52.175Z,17.73
2023-02-01T03:09:00.658Z,20.48
2023-02-01T03:12:29.691Z,20.85
2023-02-01T03:15:44.251Z,24.98
2023-02-01T03:19:05.897Z,14.40
2023-02-01T03:22:12.837Z,13.65
2023-02-01T03:25:27.597Z,8.52
2023-02-01T03:28:36.303Z,4.82
2023-02-01T03:31:39.828Z,8.70
2023-02-01T03:34:44.539Z,17.67
2023-02-01T03:37:49.225Z,10.45
2023-02-01T03:41:16.926Z,8.82
2023-02-01T03:44:34.333Z,9.20
2023-02-01T03:47:44.416Z,6.25
2023-02-01T03:50:54.192Z,8.57
2023-02-01T03:53:59.238Z,10.68
2023-02-01T03:57:11.420Z,14.32
2023-02-01T04:00:25.822Z,17.15
2023-02-01T04:03:31.534Z,7.47
2023-02-01T04:06:35.943Z,20.23
2023-02-01T04:12:43.229Z,18.23
2023-02-01T04:15:47.563Z,6.30
2023-02-01T04:21:53.557Z,12.65
2023-02-01T04:24:56.629Z,7.05
2023-02-01T04:28:01.058Z,12.95
2023-02-01T04:34:07.243Z,7.65
2023-02-01T04:37:10.719Z,9.85
2023-02-01T04:40:14.170Z,10.60
2023-02-01T04:43:18.787Z,34.10
2023-02-01T04:46:22.008Z,7.35
2023-02-01T04:49:27.079Z,11.77
2023-02-01T04:52:30.177Z,8.70
2023-02-01T04:55:33.392Z,8.23
2023-02-01T04:58:36.525Z,3.95
2023-02-01T05:01:39.817Z,5.63
2023-02-01T05:04:43.210Z,6.15
2023-02-01T05:07:48.403Z,7.70
2023-02-01T05:10:51.566Z,15.13
2023-02-01T05:13:54.730Z,6.10
2023-02-01T05:16:57.911Z,6.43
2023-02-01T05:20:01.271Z,17.05
2023-02-01T05:23:05.944Z,13.90
2023-02-01T05:26:09.110Z,6.80
2023-02-01T05:29:13.424Z,6.00
2023-02-01T05:32:22.585Z,2.53
2023-02-01T05:35:26.269Z,2.40
2023-02-01T05:38:31.300Z,8.20
2023-02-01T05:41:34.650Z,6.05
2023-02-01T05:44:37.797Z,5.20
2023-02-01T05:47:41.062Z,8.25
2023-02-01T05:50:45.295Z,7.72
2023-02-01T05:53:48.432Z,3.50
2023-02-01T05:56:51.533Z,6.47
2023-02-01T05:59:54.703Z,8.15
2023-02-01T06:02:57.913Z,8.50
2023-02-01T06:06:02.644Z,10.25
2023-02-01T06:09:05.733Z,10.20
2023-02-01T06:12:09.280Z,7.28
2023-02-01T06:15:13.631Z,9.35
2023-02-01T06:21:25.312Z,4.32
2023-02-01T06:24:28.600Z,7.75
2023-02-01T06:27:32.439Z,10.85
2023-02-01T06:30:36.062Z,13.80
2023-02-01T06:33:40.359Z,13.87
2023-02-01T06:36:43.724Z,11.73
2023-02-01T06:39:46.936Z,10.27
2023-02-01T06:42:51.156Z,12.05
2023-02-01T06:45:55.098Z,8.23
2023-02-01T06:48:58.371Z,9.75
2023-02-01T06:52:01.867Z,10.05
2023-02-01T06:55:05.355Z,7.00
2023-02-01T06:58:08.560Z,5.55
2023-02-01T07:01:12.508Z,11.75
2023-02-01T07:04:15.739Z,6.90
2023-02-01T07:07:21.210Z,6.65
2023-02-01T07:10:24.628Z,5.63
2023-02-01T07:13:27.862Z,6.28
2023-02-01T07:16:32.786Z,7.63
2023-02-01T07:19:35.939Z,184.60
2023-02-01T07:22:39.119Z,17.30
2023-02-01T07:25:42.269Z,5.95
2023-02-01T07:28:45.641Z,10.57
2023-02-01T07:31:48.729Z,7.15
2023-02-01T07:34:51.908Z,8.73
2023-02-01T07:37:55.044Z,13.27
2023-02-01T07:41:06.104Z,6.60
2023-02-01T07:44:09.188Z,11.38
2023-02-01T07:47:12.337Z,6.47
2023-02-01T07:50:15.642Z,7.35
2023-02-01T07:53:18.769Z,5.50
2023-02-01T07:56:24.186Z,15.00
2023-02-01T07:59:27.388Z,4.75
2023-02-01T08:02:30.566Z,4.07
2023-02-01T08:05:33.687Z,5.30
2023-02-01T08:08:36.842Z,7.32
2023-02-01T08:11:40.247Z,7.53
2023-02-01T08:14:43.610Z,22.45
2023-02-01T08:17:53.315Z,10.18
2023-02-01T08:20:56.788Z,6.25
2023-02-01T08:23:59.842Z,13.25
2023-02-01T08:27:04.166Z,14.38
2023-02-01T08:30:08.933Z,22.15
2023-02-01T08:33:14.244Z,10.32
2023-02-01T08:36:18.543Z,13.00
2023-02-01T08:39:21.741Z,10.38
2023-02-01T08:42:43.958Z,7.30
2023-02-01T08:45:48.388Z,5.78
2023-02-01T08:48:51.728Z,15.68
2023-02-01T08:51:58.328Z,15.30
2023-02-01T08:55:02.183Z,6.85
2023-02-01T08:58:06.043Z,20.00
2023-02-01T09:01:12.593Z,16.92
2023-02-01T09:04:16.416Z,13.95
2023-02-01T09:07:20.255Z,12.32
2023-02-01T09:10:34.724Z,17.67
2023-02-01T09:13:38.524Z,18.08
2023-02-01T09:16:42.480Z,18.48
2023-02-01T09:19:46.943Z,13.30
2023-02-01T09:25:54.803Z,15.45
2023-02-01T09:28:58.499Z,26.60
2023-02-01T09:32:04.263Z,23.90
2023-02-01T09:35:08.686Z,19.05
2023-02-01T09:38:11.879Z,20.90
2023-02-01T09:41:41.997Z,22.52
2023-02-01T09:45:04.008Z,18.73
2023-02-01T09:48:24.016Z,30.08
2023-02-01T09:51:32.970Z,15.23
2023-02-01T09:54:46.427Z,13.45
2023-02-01T09:58:16.142Z,9.77
2023-02-01T10:01:23.831Z,5.03
2023-02-01T10:04:28.744Z,8.90
2023-02-01T10:07:54.235Z,4.13
2023-02-01T10:11:13.954Z,12.48
2023-02-01T10:14:29.684Z,11.35
2023-02-01T10:18:20.578Z,11.95
2023-02-01T10:21:48.835Z,3.60
2023-02-01T10:25:27.483Z,6.60
2023-02-01T10:28:37.569Z,5.88
2023-02-01T10:31:42.057Z,4.18
2023-02-01T10:34:54.460Z,1.55
2023-02-01T10:38:03.465Z,10.25
2023-02-01T10:41:16.719Z,9.23
2023-02-01T10:44:27.258Z,3.50
2023-02-01T10:47:32.498Z,5.07
2023-02-01T10:50:57.071Z,3.20
2023-02-01T10:54:23.002Z,11.70
2023-02-01T10:57:30.151Z,8.35
2023-02-01T11:01:05.559Z,4.75
2023-02-01T11:04:15.155Z,10.85
2023-02-01T11:07:28.921Z,8.73
2023-02-01T11:10:44.755Z,9.65
2023-02-01T11:14:01.088Z,2.55
2023-02-01T11:17:21.150Z,16.92
2023-02-01T11:20:35.134Z,20.45
2023-02-01T11:23:47.493Z,11.68
2023-02-01T11:26:51.056Z,13.27
2023-02-01T11:30:02.049Z,3.65
2023-02-01T11:33:07.543Z,16.63
2023-02-01T11:36:19.377Z,20.42
2023-02-01T11:39:28.723Z,22.90
2023-02-01T11:42:32.293Z,21.17
2023-02-01T11:45:39.949Z,21.42
2023-02-01T11:48:43.802Z,15.10
2023-02-01T11:52:06.095Z,20.60
2023-02-01T11:55:31.789Z,19.50
2023-02-01T11:58:56.648Z,10.43
2023-02-01T12:02:24.204Z,17.55
2023-02-01T12:05:48.093Z,20.47
2023-02-01T12:09:06.478Z,27.03
2023-02-01T12:12:25.537Z,15.98
2023-02-01T12:15:36.097Z,24.63
2023-02-01T12:18:39.621Z,29.98
2023-02-01T12:22:25.585Z,25.35
2023-02-01T12:25:35.342Z,18.75
2023-02-01T12:29:15.023Z,31.25
2023-02-01T12:32:46.901Z,17.35
2023-02-01T12:36:17.862Z,24.80
2023-02-01T12:39:27.133Z,20.02
2023-02-01T12:42:44.907Z,12.93
2023-02-01T12:46:10.462Z,13.65
2023-02-01T12:49:27.093Z,21.85
2023-02-01T12:52:41.705Z,25.65
2023-02-01T12:55:52.990Z,26.40
2023-02-01T12:59:02.913Z,30.77
2023-02-01T13:02:41.228Z,27.98
2023-02-01T13:06:20.095Z,16.10
2023-02-01T13:09:50.490Z,9.52
2023-02-01T13:13:04.056Z,15.00
2023-02-01T13:16:39.349Z,32.30
2023-02-01T13:20:01.784Z,11.73
2023-02-01T13:23:18.923Z,13.43
2023-02-01T13:26:23.074Z,11.20
2023-02-01T13:29:28.350Z,18.20
2023-02-01T13:33:52.495Z,15.73
2023-02-01T13:36:41.259Z,7.00
2023-02-01T13:39:51.576Z,12.50
2023-02-01T13:43:08.737Z,11.50
2023-02-01T13:46:16.662Z,12.60
2023-02-01T13:49:28.334Z,11.57
2023-02-01T13:52:47.992Z,12.60
2023-02-01T13:55:59.808Z,12.02
2023-02-01T13:59:49.232Z,9.68
2023-02-01T14:03:05.082Z,10.75
2023-02-01T14:06:30.305Z,8.88
2023-02-01T14:09:38.671Z,5.47
2023-02-01T14:12:51.679Z,6.43
2023-02-01T14:16:10.926Z,10.68
2023-02-01T14:19:30.378Z,6.93
2023-02-01T14:22:36.521Z,8.45
2023-02-01T14:25:41.998Z,9.13
2023-02-01T14:29:00.288Z,10.82
2023-02-01T14:32:17.352Z,13.40
2023-02-01T14:35:26.427Z,13.65
2023-02-01T14:38:32.958Z,2.83
2023-02-01T14:41:37.989Z,7.50
2023-02-01T14:44:58.780Z,7.55
2023-02-01T14:48:08.889Z,4.95
2023-02-01T14:51:15.150Z,9.82
2023-02-01T14:54:20.773Z,7.15
2023-02-01T14:57:28.493Z,4.43
2023-02-01T15:00:33.428Z,5.22
2023-02-01T15:04:04.325Z,10.48
2023-02-01T15:07:13.381Z,8.52
2023-02-01T15:10:16.859Z,4.70
2023-02-01T15:13:28.541Z,7.50
2023-02-01T15:16:31.629Z,6.55
2023-02-01T15:19:34.653Z,2.88
2023-02-01T15:22:37.771Z,6.90
2023-02-01T15:25:41.197Z,3.93
2023-02-01T15:28:47.224Z,3.70
2023-02-01T15:31:57.181Z,10.82
2023-02-01T15:35:04.069Z,5.18
2023-02-01T15:38:25.968Z,5.55
2023-02-01T15:41:33.171Z,5.55
2023-02-01T15:44:44.613Z,4.15
2023-02-01T15:47:52.603Z,4.25
2023-02-01T15:50:57.249Z,4.13
2023-02-01T15:54:03.424Z,4.22
2023-02-01T15:57:07.268Z,2.85
2023-02-01T16:00:25.086Z,3.97
2023-02-01T16:03:37.770Z,4.03
2023-02-01T16:07:07.221Z,11.75
2023-02-01T16:10:29.011Z,4.57
2023-02-01T16:13:32.006Z,10.60
2023-02-01T16:16:35.113Z,8.55
2023-02-01T16:19:38.714Z,6.95
2023-02-01T16:22:41.880Z,8.45
2023-02-01T16:25:45.297Z,15.40
2023-02-01T16:28:49.124Z,7.32
2023-02-01T16:31:53.030Z,12.52
2023-02-01T16:34:58.180Z,14.88
2023-02-01T16:38:01.396Z,10.35
2023-02-01T16:41:07.138Z,10.27
2023-02-01T16:44:10.314Z,15.63
2023-02-01T16:47:24.134Z,6.93
2023-02-01T16:50:27.956Z,5.53
2023-02-01T16:53:36.534Z,10.18
2023-02-01T16:56:47.174Z,8.60
2023-02-01T16:59:50.615Z,19.02
2023-02-01T17:02:54.823Z,6.53
2023-02-01T17:09:03.967Z,7.10
2023-02-01T17:12:07.525Z,11.48
2023-02-01T17:15:12.363Z,33.15
2023-02-01T17:18:17.624Z,29.40
2023-02-01T17:21:21.166Z,35.53
2023-02-01T17:24:35.799Z,45.15
2023-02-01T17:27:42.764Z,28.05
2023-02-01T17:30:45.974Z,32.05
2023-02-01T17:33:49.180Z,52.60
2023-02-01T17:36:52.327Z,40.40
2023-02-01T17:39:56.057Z,33.00
2023-02-01T17:42:59.229Z,58.65
2023-02-01T17:46:07.587Z,46.38
2023-02-01T17:49:10.754Z,74.77
2023-02-01T17:52:19.354Z,49.45
2023-02-01T17:55:26.337Z,90.73
2023-02-01T17:58:33.835Z,72.77
2023-02-01T18:01:41.539Z,90.70
2023-02-01T18:04:44.671Z,66.10
2023-02-01T18:07:47.811Z,68.53
2023-02-01T18:10:53.165Z,65.60
2023-02-01T18:13:56.314Z,59.60
2023-02-01T18:16:59.441Z,59.93
2023-02-01T18:20:02.623Z,49.83
2023-02-01T18:23:05.751Z,50.53
2023-02-01T18:26:13.253Z,56.67
2023-02-01T18:29:16.380Z,80.67
2023-02-01T18:32:19.546Z,109.60
2023-02-01T18:35:31.167Z,41.97
2023-02-01T18:38:34.290Z,63.20
2023-02-01T18:41:37.464Z,35.13
2023-02-01T18:44:40.713Z,69.57
2023-02-01T18:47:43.729Z,64.15
2023-02-01T18:50:47.077Z,34.80
2023-02-01T18:53:50.504Z,38.00
2023-02-01T18:56:53.838Z,23.60
2023-02-01T18:59:56.945Z,36.47
2023-02-01T19:03:00.299Z,18.98
2023-02-01T19:06:03.624Z,14.18
2023-02-01T19:09:06.746Z,44.92
2023-02-01T19:12:09.785Z,22.67
2023-02-01T19:15:16.243Z,9.98
2023-02-01T19:18:20.999Z,27.23
2023-02-01T19:21:24.133Z,26.43
2023-02-01T19:24:28.693Z,22.38
2023-02-01T19:27:31.856Z,9.77
2023-02-01T19:30:35.017Z,8.98
2023-02-01T19:33:38.405Z,11.35
2023-02-01T19:36:42.831Z,18.75
2023-02-01T19:39:46.142Z,12.20
2023-02-01T19:42:49.522Z,16.83
2023-02-01T19:45:53.628Z,9.43
2023-02-01T19:48:57.019Z,18.47
2023-02-01T19:52:00.111Z,24.98
2023-02-01T19:55:04.562Z,21.02
2023-02-01T19:58:07.662Z,18.77
2023-02-01T20:01:10.899Z,28.30
2023-02-01T20:04:16.317Z,11.57
2023-02-01T20:07:19.591Z,15.43
2023-02-01T20:10:22.673Z,9.35
2023-02-01T20:13:25.786Z,10.93
2023-02-01T20:16:29.514Z,4.90
2023-02-01T20:19:33.435Z,17.92
2023-02-01T20:25:40.308Z,24.43
2023-02-01T20:28:43.435Z,22.70
2023-02-01T20:31:47.448Z,32.88
2023-02-01T20:34:53.899Z,17.33
2023-02-01T20:37:59.750Z,9.33
2023-02-01T20:41:04.741Z,11.97
2023-02-01T20:44:07.968Z,21.77
2023-02-01T20:47:11.039Z,13.27
2023-02-01T20:50:14.121Z,4.32
2023-02-01T20:53:26.182Z,6.10
2023-02-01T20:56:29.893Z,6.90
2023-02-01T20:59:33.013Z,5.72
2023-02-01T21:02:36.124Z,13.25
2023-02-01T21:05:42.489Z,20.77
2023-02-01T21:08:45.608Z,13.53
2023-02-01T21:11:48.709Z,4.75
2023-02-01T21:14:51.899Z,31.58
2023-02-01T21:17:55.256Z,13.93
2023-02-01T21:20:58.835Z,16.20
2023-02-01T21:24:04.069Z,43.25
2023-02-01T21:27:07.539Z,29.40
2023-02-01T21:30:11.439Z,31.45
2023-02-01T21:36:20.935Z,9.87
2023-02-01T21:39:25.203Z,12.47
2023-02-01T21:42:29.229Z,20.10
2023-02-01T21:49:03.810Z,16.90
2023-02-01T21:51:58.931Z,11.87
2023-02-01T21:55:02.407Z,15.45
2023-02-01T21:58:13.140Z,19.65
2023-02-01T22:01:16.294Z,16.17
2023-02-01T22:04:19.368Z,14.98
2023-02-01T22:07:22.517Z,10.82
2023-02-01T22:10:25.627Z,12.88
2023-02-01T22:13:28.802Z,9.43
2023-02-01T22:16:32.063Z,44.75
2023-02-01T22:19:35.266Z,27.58
2023-02-01T22:22:38.421Z,40.28
2023-02-01T22:25:41.483Z,29.52
2023-02-01T22:28:45.398Z,11.10
2023-02-01T22:31:48.922Z,10.17
2023-02-01T22:34:52.222Z,20.73
2023-02-01T22:37:55.316Z,39.05
2023-02-01T22:41:02.594Z,71.43
2023-02-01T22:44:07.563Z,55.13
2023-02-01T22:47:10.879Z,39.13
2023-02-01T22:50:14.395Z,47.70
2023-02-01T22:53:18.047Z,44.45
2023-02-01T22:56:22.320Z,37.47
2023-02-01T22:59:29.094Z,39.17
2023-02-01T23:02:33.034Z,36.37
2023-02-01T23:05:38.839Z,50.13
2023-02-01T23:08:41.894Z,33.27
2023-02-01T23:11:49.154Z,20.05
2023-02-01T23:15:08.915Z,23.60
2023-02-01T23:18:12.523Z,45.47
2023-02-01T23:24:24.831Z,36.40
2023-02-01T23:27:32.498Z,37.77
2023-02-01T23:30:40.771Z,29.10
2023-02-01T23:33:47.886Z,27.67
2023-02-01T23:36:52.599Z,70.83
2023-02-01T23:39:59.005Z,37.63
2023-02-01T23:43:21.433Z,21.73
2023-02-01T23:46:50.321Z,46.30
2023-02-01T23:49:54.052Z,21.53
2023-02-01T23:52:58.086Z,19.57
2023-02-01T23:56:05.944Z,22.30
2023-02-01T23:59:16.799Z,25.93
